sensor_id;sensor_type;location;lat;lon;timestamp;temperature;humidity
55091;DHT22;40985;53.180;5.800;2024-03-22T00:00:14;9.30;99.90
55091;DHT22;40985;53.180;5.800;2024-03-22T00:02:40;9.30;99.90
55091;DHT22;40985;53.180;5.800;2024-03-22T00:05:06;9.30;99.90
55091;DHT22;40985;53.180;5.800;2024-03-22T00:07:31;9.30;99.90
55091;DHT22;40985;53.180;5.800;2024-03-22T00:09:57;9.30;99.90
55091;DHT22;40985;53.180;5.800;2024-03-22T00:12:23;9.30;99.90
55091;DHT22;40985;53.180;5.800;2024-03-22T00:14:49;9.30;99.90
55091;DHT22;40985;53.180;5.800;2024-03-22T00:17:16;9.40;99.90
55091;DHT22;40985;53.180;5.800;2024-03-22T00:19:42;9.30;99.90
55091;DHT22;40985;53.180;5.800;2024-03-22T00:22:08;9.40;99.90
55091;DHT22;40985;53.180;5.800;2024-03-22T00:24:34;9.40;99.90
55091;DHT22;40985;53.180;5.800;2024-03-22T00:26:59;9.40;99.90
55091;DHT22;40985;53.180;5.800;2024-03-22T00:29:25;9.40;99.90
55091;DHT22;40985;53.180;5.800;2024-03-22T00:31:51;9.50;99.90
55091;DHT22;40985;53.180;5.800;2024-03-22T00:34:17;9.50;99.90
55091;DHT22;40985;53.180;5.800;2024-03-22T00:36:43;9.40;99.90
55091;DHT22;40985;53.180;5.800;2024-03-22T00:39:08;9.40;99.90
55091;DHT22;40985;53.180;5.800;2024-03-22T00:41:34;9.50;99.90
55091;DHT22;40985;53.180;5.800;2024-03-22T00:44:00;9.50;99.90
55091;DHT22;40985;53.180;5.800;2024-03-22T00:46:26;9.50;99.90
55091;DHT22;40985;53.180;5.800;2024-03-22T00:48:52;9.50;99.90
55091;DHT22;40985;53.180;5.800;2024-03-22T00:51:17;9.50;99.90
55091;DHT22;40985;53.180;5.800;2024-03-22T00:53:43;9.50;99.90
55091;DHT22;40985;53.180;5.800;2024-03-22T00:56:08;9.50;99.90
55091;DHT22;40985;53.180;5.800;2024-03-22T00:58:34;9.60;99.90
55091;DHT22;40985;53.180;5.800;2024-03-22T01:01:00;9.60;99.90
55091;DHT22;40985;53.180;5.800;2024-03-22T01:03:25;9.50;99.90
55091;DHT22;40985;53.180;5.800;2024-03-22T01:05:51;9.60;99.90
55091;DHT22;40985;53.180;5.800;2024-03-22T01:08:17;9.60;99.90
55091;DHT22;40985;53.180;5.800;2024-03-22T01:10:43;9.70;99.90
55091;DHT22;40985;53.180;5.800;2024-03-22T01:13:08;9.70;99.90
55091;DHT22;40985;53.180;5.800;2024-03-22T01:15:34;9.60;99.90
55091;DHT22;40985;53.180;5.800;2024-03-22T01:18:01;9.70;99.90
55091;DHT22;40985;53.180;5.800;2024-03-22T01:20:26;9.70;99.90
55091;DHT22;40985;53.180;5.800;2024-03-22T01:22:52;9.70;99.90
55091;DHT22;40985;53.180;5.800;2024-03-22T01:25:18;9.70;99.90
55091;DHT22;40985;53.180;5.800;2024-03-22T01:27:44;9.70;99.90
55091;DHT22;40985;53.180;5.800;2024-03-22T01:30:10;9.70;99.90
55091;DHT22;40985;53.180;5.800;2024-03-22T01:32:36;9.70;99.90
55091;DHT22;40985;53.180;5.800;2024-03-22T01:35:02;9.80;99.90
55091;DHT22;40985;53.180;5.800;2024-03-22T01:37:28;9.70;99.90
55091;DHT22;40985;53.180;5.800;2024-03-22T01:39:53;9.70;99.90
55091;DHT22;40985;53.180;5.800;2024-03-22T01:42:19;9.70;99.90
55091;DHT22;40985;53.180;5.800;2024-03-22T01:44:44;9.70;99.90
55091;DHT22;40985;53.180;5.800;2024-03-22T01:47:10;9.70;99.90
55091;DHT22;40985;53.180;5.800;2024-03-22T01:49:36;9.70;99.90
55091;DHT22;40985;53.180;5.800;2024-03-22T01:52:02;9.70;99.90
55091;DHT22;40985;53.180;5.800;2024-03-22T01:54:28;9.60;99.90
55091;DHT22;40985;53.180;5.800;2024-03-22T01:56:56;9.70;99.90
55091;DHT22;40985;53.180;5.800;2024-03-22T01:59:22;9.60;99.90
55091;DHT22;40985;53.180;5.800;2024-03-22T02:01:48;9.70;99.90
55091;DHT22;40985;53.180;5.800;2024-03-22T02:04:14;9.60;99.90
55091;DHT22;40985;53.180;5.800;2024-03-22T02:06:40;9.70;99.90
55091;DHT22;40985;53.180;5.800;2024-03-22T02:09:06;9.70;99.90
55091;DHT22;40985;53.180;5.800;2024-03-22T02:11:36;9.70;99.90
55091;DHT22;40985;53.180;5.800;2024-03-22T02:14:03;9.70;99.90
55091;DHT22;40985;53.180;5.800;2024-03-22T02:16:29;9.60;99.90
55091;DHT22;40985;53.180;5.800;2024-03-22T02:18:55;9.70;99.90
55091;DHT22;40985;53.180;5.800;2024-03-22T02:21:21;9.60;99.90
55091;DHT22;40985;53.180;5.800;2024-03-22T02:23:46;9.60;99.90
55091;DHT22;40985;53.180;5.800;2024-03-22T02:26:12;9.60;99.90
55091;DHT22;40985;53.180;5.800;2024-03-22T02:28:38;9.60;99.90
55091;DHT22;40985;53.180;5.800;2024-03-22T02:31:03;9.60;99.90
55091;DHT22;40985;53.180;5.800;2024-03-22T02:33:29;9.60;99.90
55091;DHT22;40985;53.180;5.800;2024-03-22T02:35:55;9.60;99.90
55091;DHT22;40985;53.180;5.800;2024-03-22T02:38:21;9.60;99.90
55091;DHT22;40985;53.180;5.800;2024-03-22T02:40:49;9.50;99.90
55091;DHT22;40985;53.180;5.800;2024-03-22T02:43:14;9.50;99.90
55091;DHT22;40985;53.180;5.800;2024-03-22T02:45:40;9.50;99.90
55091;DHT22;40985;53.180;5.800;2024-03-22T02:48:06;9.40;99.90
55091;DHT22;40985;53.180;5.800;2024-03-22T02:50:38;9.50;99.90
55091;DHT22;40985;53.180;5.800;2024-03-22T02:53:04;9.40;99.90
55091;DHT22;40985;53.180;5.800;2024-03-22T02:55:35;9.50;99.90
55091;DHT22;40985;53.180;5.800;2024-03-22T02:58:01;9.40;99.90
55091;DHT22;40985;53.180;5.800;2024-03-22T03:00:28;9.40;99.90
55091;DHT22;40985;53.180;5.800;2024-03-22T03:02:53;9.50;99.90
55091;DHT22;40985;53.180;5.800;2024-03-22T03:05:19;9.50;99.90
55091;DHT22;40985;53.180;5.800;2024-03-22T03:07:45;9.40;99.90
55091;DHT22;40985;53.180;5.800;2024-03-22T03:10:12;9.50;99.90
55091;DHT22;40985;53.180;5.800;2024-03-22T03:12:38;9.50;99.90
55091;DHT22;40985;53.180;5.800;2024-03-22T03:15:04;9.50;99.90
55091;DHT22;40985;53.180;5.800;2024-03-22T03:17:29;9.50;99.90
55091;DHT22;40985;53.180;5.800;2024-03-22T03:19:55;9.50;99.90
55091;DHT22;40985;53.180;5.800;2024-03-22T03:22:21;9.50;99.90
55091;DHT22;40985;53.180;5.800;2024-03-22T03:24:46;9.50;99.90
55091;DHT22;40985;53.180;5.800;2024-03-22T03:27:12;9.40;99.90
55091;DHT22;40985;53.180;5.800;2024-03-22T03:29:38;9.50;99.90
55091;DHT22;40985;53.180;5.800;2024-03-22T03:32:04;9.40;99.90
55091;DHT22;40985;53.180;5.800;2024-03-22T03:34:29;9.50;99.90
55091;DHT22;40985;53.180;5.800;2024-03-22T03:36:55;9.40;99.90
55091;DHT22;40985;53.180;5.800;2024-03-22T03:39:21;9.40;99.90
55091;DHT22;40985;53.180;5.800;2024-03-22T03:41:46;9.40;99.90
55091;DHT22;40985;53.180;5.800;2024-03-22T03:44:12;9.40;99.90
55091;DHT22;40985;53.180;5.800;2024-03-22T03:46:37;9.40;99.90
55091;DHT22;40985;53.180;5.800;2024-03-22T03:49:03;9.40;99.90
55091;DHT22;40985;53.180;5.800;2024-03-22T03:51:29;9.40;99.90
55091;DHT22;40985;53.180;5.800;2024-03-22T03:53:54;9.50;99.90
55091;DHT22;40985;53.180;5.800;2024-03-22T03:56:20;9.40;99.90
55091;DHT22;40985;53.180;5.800;2024-03-22T03:58:46;9.40;99.90
55091;DHT22;40985;53.180;5.800;2024-03-22T04:01:12;9.40;99.90
55091;DHT22;40985;53.180;5.800;2024-03-22T04:03:37;9.40;99.90
55091;DHT22;40985;53.180;5.800;2024-03-22T04:06:03;9.40;99.90
55091;DHT22;40985;53.180;5.800;2024-03-22T04:08:29;9.40;99.90
55091;DHT22;40985;53.180;5.800;2024-03-22T04:10:56;9.40;99.90
55091;DHT22;40985;53.180;5.800;2024-03-22T04:13:23;9.40;99.90
55091;DHT22;40985;53.180;5.800;2024-03-22T04:15:49;9.30;99.90
55091;DHT22;40985;53.180;5.800;2024-03-22T04:18:15;9.40;99.90
55091;DHT22;40985;53.180;5.800;2024-03-22T04:20:41;9.40;99.90
55091;DHT22;40985;53.180;5.800;2024-03-22T04:23:06;9.40;99.90
55091;DHT22;40985;53.180;5.800;2024-03-22T04:25:32;9.40;99.90
55091;DHT22;40985;53.180;5.800;2024-03-22T04:27:57;9.30;99.90
55091;DHT22;40985;53.180;5.800;2024-03-22T04:30:23;9.30;99.90
55091;DHT22;40985;53.180;5.800;2024-03-22T04:32:49;9.40;99.90
55091;DHT22;40985;53.180;5.800;2024-03-22T04:35:14;9.40;99.90
55091;DHT22;40985;53.180;5.800;2024-03-22T04:37:40;9.30;99.90
55091;DHT22;40985;53.180;5.800;2024-03-22T04:40:06;9.40;99.90
55091;DHT22;40985;53.180;5.800;2024-03-22T04:42:32;9.40;99.90
55091;DHT22;40985;53.180;5.800;2024-03-22T04:44:58;9.40;99.90
55091;DHT22;40985;53.180;5.800;2024-03-22T04:47:23;9.40;99.90
55091;DHT22;40985;53.180;5.800;2024-03-22T04:49:49;9.40;99.90
55091;DHT22;40985;53.180;5.800;2024-03-22T04:52:15;9.40;99.90
55091;DHT22;40985;53.180;5.800;2024-03-22T04:54:41;9.40;99.90
55091;DHT22;40985;53.180;5.800;2024-03-22T04:57:06;9.40;99.90
55091;DHT22;40985;53.180;5.800;2024-03-22T04:59:32;9.30;99.90
55091;DHT22;40985;53.180;5.800;2024-03-22T05:01:58;9.40;99.90
55091;DHT22;40985;53.180;5.800;2024-03-22T05:04:23;9.40;99.90
55091;DHT22;40985;53.180;5.800;2024-03-22T05:06:49;9.30;99.90
55091;DHT22;40985;53.180;5.800;2024-03-22T05:09:15;9.40;99.90
55091;DHT22;40985;53.180;5.800;2024-03-22T05:11:41;9.30;99.90
55091;DHT22;40985;53.180;5.800;2024-03-22T05:14:06;9.30;99.90
55091;DHT22;40985;53.180;5.800;2024-03-22T05:16:32;9.20;99.90
55091;DHT22;40985;53.180;5.800;2024-03-22T05:18:58;9.30;99.90
55091;DHT22;40985;53.180;5.800;2024-03-22T05:21:24;9.30;99.90
55091;DHT22;40985;53.180;5.800;2024-03-22T05:23:49;9.20;99.90
55091;DHT22;40985;53.180;5.800;2024-03-22T05:26:15;9.20;99.90
55091;DHT22;40985;53.180;5.800;2024-03-22T05:28:41;9.20;99.90
55091;DHT22;40985;53.180;5.800;2024-03-22T05:31:06;9.20;99.90
55091;DHT22;40985;53.180;5.800;2024-03-22T05:33:32;9.20;99.90
55091;DHT22;40985;53.180;5.800;2024-03-22T05:35:57;9.20;99.90
55091;DHT22;40985;53.180;5.800;2024-03-22T05:38:24;9.10;99.90
55091;DHT22;40985;53.180;5.800;2024-03-22T05:40:50;9.10;99.90
55091;DHT22;40985;53.180;5.800;2024-03-22T05:43:16;9.10;99.90
55091;DHT22;40985;53.180;5.800;2024-03-22T05:45:42;9.00;99.90
55091;DHT22;40985;53.180;5.800;2024-03-22T05:48:07;9.00;99.90
55091;DHT22;40985;53.180;5.800;2024-03-22T05:50:33;9.00;99.90
55091;DHT22;40985;53.180;5.800;2024-03-22T05:52:59;9.10;99.90
55091;DHT22;40985;53.180;5.800;2024-03-22T05:55:24;9.00;99.90
55091;DHT22;40985;53.180;5.800;2024-03-22T05:57:52;9.00;99.90
55091;DHT22;40985;53.180;5.800;2024-03-22T06:00:18;9.00;99.90
55091;DHT22;40985;53.180;5.800;2024-03-22T06:02:44;9.00;99.90
55091;DHT22;40985;53.180;5.800;2024-03-22T06:05:09;9.00;99.90
55091;DHT22;40985;53.180;5.800;2024-03-22T06:07:35;9.00;99.90
55091;DHT22;40985;53.180;5.800;2024-03-22T06:10:08;9.00;99.90
55091;DHT22;40985;53.180;5.800;2024-03-22T06:12:35;9.10;99.90
55091;DHT22;40985;53.180;5.800;2024-03-22T06:15:01;9.10;99.90
55091;DHT22;40985;53.180;5.800;2024-03-22T06:17:27;9.10;99.90
55091;DHT22;40985;53.180;5.800;2024-03-22T06:19:52;9.10;99.90
55091;DHT22;40985;53.180;5.800;2024-03-22T06:22:18;9.10;99.90
55091;DHT22;40985;53.180;5.800;2024-03-22T06:24:44;9.00;99.90
55091;DHT22;40985;53.180;5.800;2024-03-22T06:27:10;9.10;99.90
55091;DHT22;40985;53.180;5.800;2024-03-22T06:29:36;9.10;99.90
55091;DHT22;40985;53.180;5.800;2024-03-22T06:32:01;9.10;99.90
55091;DHT22;40985;53.180;5.800;2024-03-22T06:34:27;9.10;99.90
55091;DHT22;40985;53.180;5.800;2024-03-22T06:36:53;9.10;99.90
55091;DHT22;40985;53.180;5.800;2024-03-22T06:39:18;9.10;99.90
55091;DHT22;40985;53.180;5.800;2024-03-22T06:41:45;9.00;99.90
55091;DHT22;40985;53.180;5.800;2024-03-22T06:44:10;9.00;99.90
55091;DHT22;40985;53.180;5.800;2024-03-22T06:46:38;8.90;99.90
55091;DHT22;40985;53.180;5.800;2024-03-22T06:49:04;8.90;99.90
55091;DHT22;40985;53.180;5.800;2024-03-22T06:51:30;9.00;99.90
55091;DHT22;40985;53.180;5.800;2024-03-22T06:53:55;8.90;99.90
55091;DHT22;40985;53.180;5.800;2024-03-22T06:56:21;9.00;99.90
55091;DHT22;40985;53.180;5.800;2024-03-22T06:58:47;9.00;99.90
55091;DHT22;40985;53.180;5.800;2024-03-22T07:01:12;8.90;99.90
55091;DHT22;40985;53.180;5.800;2024-03-22T07:03:38;9.00;99.90
55091;DHT22;40985;53.180;5.800;2024-03-22T07:06:04;8.90;99.90
55091;DHT22;40985;53.180;5.800;2024-03-22T07:08:32;8.90;99.90
55091;DHT22;40985;53.180;5.800;2024-03-22T07:10:59;9.00;99.90
55091;DHT22;40985;53.180;5.800;2024-03-22T07:13:25;8.90;99.90
55091;DHT22;40985;53.180;5.800;2024-03-22T07:15:50;8.90;99.90
55091;DHT22;40985;53.180;5.800;2024-03-22T07:18:16;9.00;99.90
55091;DHT22;40985;53.180;5.800;2024-03-22T07:20:42;8.90;99.90
55091;DHT22;40985;53.180;5.800;2024-03-22T07:23:08;8.90;99.90
55091;DHT22;40985;53.180;5.800;2024-03-22T07:25:34;9.00;99.90
55091;DHT22;40985;53.180;5.800;2024-03-22T07:27:59;9.00;99.90
55091;DHT22;40985;53.180;5.800;2024-03-22T07:30:25;8.90;99.90
55091;DHT22;40985;53.180;5.800;2024-03-22T07:32:51;9.00;99.90
55091;DHT22;40985;53.180;5.800;2024-03-22T07:35:16;9.00;99.90
55091;DHT22;40985;53.180;5.800;2024-03-22T07:37:42;9.00;99.90
55091;DHT22;40985;53.180;5.800;2024-03-22T07:40:08;9.00;99.90
55091;DHT22;40985;53.180;5.800;2024-03-22T07:42:34;8.90;99.90
55091;DHT22;40985;53.180;5.800;2024-03-22T07:44:59;9.00;99.90
55091;DHT22;40985;53.180;5.800;2024-03-22T07:47:25;9.00;99.90
55091;DHT22;40985;53.180;5.800;2024-03-22T07:49:51;9.00;99.90
55091;DHT22;40985;53.180;5.800;2024-03-22T07:52:17;9.00;99.90
55091;DHT22;40985;53.180;5.800;2024-03-22T07:54:42;9.00;99.90
55091;DHT22;40985;53.180;5.800;2024-03-22T07:57:08;8.90;99.90
55091;DHT22;40985;53.180;5.800;2024-03-22T07:59:36;9.00;99.90
55091;DHT22;40985;53.180;5.800;2024-03-22T08:02:02;8.80;99.90
55091;DHT22;40985;53.180;5.800;2024-03-22T08:04:29;8.90;99.90
55091;DHT22;40985;53.180;5.800;2024-03-22T08:06:54;8.90;99.90
55091;DHT22;40985;53.180;5.800;2024-03-22T08:09:20;8.90;99.90
55091;DHT22;40985;53.180;5.800;2024-03-22T08:11:46;8.80;99.90
55091;DHT22;40985;53.180;5.800;2024-03-22T08:14:11;9.00;99.90
55091;DHT22;40985;53.180;5.800;2024-03-22T08:16:37;8.90;99.90
55091;DHT22;40985;53.180;5.800;2024-03-22T08:19:03;8.90;99.90
55091;DHT22;40985;53.180;5.800;2024-03-22T08:21:28;8.90;99.90
55091;DHT22;40985;53.180;5.800;2024-03-22T08:23:54;8.90;99.90
55091;DHT22;40985;53.180;5.800;2024-03-22T08:26:20;9.00;99.90
55091;DHT22;40985;53.180;5.800;2024-03-22T08:28:47;9.00;99.90
55091;DHT22;40985;53.180;5.800;2024-03-22T08:31:13;9.00;99.90
55091;DHT22;40985;53.180;5.800;2024-03-22T08:33:39;8.90;99.90
55091;DHT22;40985;53.180;5.800;2024-03-22T08:36:05;9.00;99.90
55091;DHT22;40985;53.180;5.800;2024-03-22T08:38:31;9.00;99.90
55091;DHT22;40985;53.180;5.800;2024-03-22T08:40:56;9.10;99.90
55091;DHT22;40985;53.180;5.800;2024-03-22T08:43:22;9.10;99.90
55091;DHT22;40985;53.180;5.800;2024-03-22T08:45:51;9.10;99.90
55091;DHT22;40985;53.180;5.800;2024-03-22T08:48:17;9.00;99.90
55091;DHT22;40985;53.180;5.800;2024-03-22T08:50:43;9.10;99.90
55091;DHT22;40985;53.180;5.800;2024-03-22T08:53:09;8.90;99.90
55091;DHT22;40985;53.180;5.800;2024-03-22T08:55:35;9.00;99.90
55091;DHT22;40985;53.180;5.800;2024-03-22T08:58:01;9.00;99.90
55091;DHT22;40985;53.180;5.800;2024-03-22T09:00:26;9.00;99.90
55091;DHT22;40985;53.180;5.800;2024-03-22T09:02:52;9.00;99.90
55091;DHT22;40985;53.180;5.800;2024-03-22T09:05:18;8.90;99.90
55091;DHT22;40985;53.180;5.800;2024-03-22T09:07:44;8.90;99.90
55091;DHT22;40985;53.180;5.800;2024-03-22T09:10:10;8.90;99.90
55091;DHT22;40985;53.180;5.800;2024-03-22T09:12:37;9.00;99.90
55091;DHT22;40985;53.180;5.800;2024-03-22T09:15:02;8.90;99.90
55091;DHT22;40985;53.180;5.800;2024-03-22T09:17:28;8.90;99.90
55091;DHT22;40985;53.180;5.800;2024-03-22T09:19:55;9.00;99.90
55091;DHT22;40985;53.180;5.800;2024-03-22T09:22:20;9.00;99.90
55091;DHT22;40985;53.180;5.800;2024-03-22T09:24:46;9.00;99.90
55091;DHT22;40985;53.180;5.800;2024-03-22T09:27:11;8.80;99.90
55091;DHT22;40985;53.180;5.800;2024-03-22T09:29:37;9.00;99.90
55091;DHT22;40985;53.180;5.800;2024-03-22T09:32:04;9.00;99.90
55091;DHT22;40985;53.180;5.800;2024-03-22T09:34:30;8.90;99.90
55091;DHT22;40985;53.180;5.800;2024-03-22T09:36:56;8.90;99.90
55091;DHT22;40985;53.180;5.800;2024-03-22T09:39:22;8.90;99.90
55091;DHT22;40985;53.180;5.800;2024-03-22T09:41:50;9.00;99.90
55091;DHT22;40985;53.180;5.800;2024-03-22T09:44:18;9.00;99.90
55091;DHT22;40985;53.180;5.800;2024-03-22T09:46:44;8.90;99.90
55091;DHT22;40985;53.180;5.800;2024-03-22T09:49:12;9.10;99.90
55091;DHT22;40985;53.180;5.800;2024-03-22T09:51:39;8.90;99.90
55091;DHT22;40985;53.180;5.800;2024-03-22T09:54:05;9.00;99.90
55091;DHT22;40985;53.180;5.800;2024-03-22T09:56:31;9.00;99.90
55091;DHT22;40985;53.180;5.800;2024-03-22T09:58:57;9.10;99.90
55091;DHT22;40985;53.180;5.800;2024-03-22T10:01:27;9.00;99.90
55091;DHT22;40985;53.180;5.800;2024-03-22T10:03:53;9.00;99.90
55091;DHT22;40985;53.180;5.800;2024-03-22T10:06:20;9.00;99.90
55091;DHT22;40985;53.180;5.800;2024-03-22T10:08:46;9.10;99.90
55091;DHT22;40985;53.180;5.800;2024-03-22T10:11:11;9.10;99.90
55091;DHT22;40985;53.180;5.800;2024-03-22T10:13:37;9.10;99.90
55091;DHT22;40985;53.180;5.800;2024-03-22T10:16:03;9.20;99.90
55091;DHT22;40985;53.180;5.800;2024-03-22T10:18:32;9.30;99.90
55091;DHT22;40985;53.180;5.800;2024-03-22T10:21:02;9.10;99.90
55091;DHT22;40985;53.180;5.800;2024-03-22T10:23:29;9.10;99.90
55091;DHT22;40985;53.180;5.800;2024-03-22T10:25:56;9.10;99.90
55091;DHT22;40985;53.180;5.800;2024-03-22T10:28:26;9.10;99.90
55091;DHT22;40985;53.180;5.800;2024-03-22T10:30:52;9.10;99.90
55091;DHT22;40985;53.180;5.800;2024-03-22T10:33:19;9.20;99.90
55091;DHT22;40985;53.180;5.800;2024-03-22T10:35:46;9.00;99.90
55091;DHT22;40985;53.180;5.800;2024-03-22T10:38:12;9.10;99.90
55091;DHT22;40985;53.180;5.800;2024-03-22T10:40:40;9.20;99.90
55091;DHT22;40985;53.180;5.800;2024-03-22T10:43:09;9.20;99.90
55091;DHT22;40985;53.180;5.800;2024-03-22T10:45:35;9.10;99.90
55091;DHT22;40985;53.180;5.800;2024-03-22T10:48:06;9.30;99.90
55091;DHT22;40985;53.180;5.800;2024-03-22T10:50:34;9.30;99.90
55091;DHT22;40985;53.180;5.800;2024-03-22T10:53:03;9.40;99.90
55091;DHT22;40985;53.180;5.800;2024-03-22T10:55:37;9.40;99.90
55091;DHT22;40985;53.180;5.800;2024-03-22T10:58:05;9.30;99.90
55091;DHT22;40985;53.180;5.800;2024-03-22T11:00:32;9.40;99.90
55091;DHT22;40985;53.180;5.800;2024-03-22T11:02:58;9.40;99.90
55091;DHT22;40985;53.180;5.800;2024-03-22T11:05:26;9.40;99.90
55091;DHT22;40985;53.180;5.800;2024-03-22T11:08:01;9.40;99.90
55091;DHT22;40985;53.180;5.800;2024-03-22T11:10:30;9.40;99.90
55091;DHT22;40985;53.180;5.800;2024-03-22T11:13:01;9.40;99.90
55091;DHT22;40985;53.180;5.800;2024-03-22T11:15:29;9.30;99.90
55091;DHT22;40985;53.180;5.800;2024-03-22T11:17:54;9.40;99.90
55091;DHT22;40985;53.180;5.800;2024-03-22T11:20:20;9.40;99.90
55091;DHT22;40985;53.180;5.800;2024-03-22T11:22:46;9.40;99.90
55091;DHT22;40985;53.180;5.800;2024-03-22T11:25:11;9.50;99.90
55091;DHT22;40985;53.180;5.800;2024-03-22T11:27:37;9.40;99.90
55091;DHT22;40985;53.180;5.800;2024-03-22T11:30:03;9.40;99.90
55091;DHT22;40985;53.180;5.800;2024-03-22T11:32:29;9.40;99.90
55091;DHT22;40985;53.180;5.800;2024-03-22T11:34:56;9.50;99.90
55091;DHT22;40985;53.180;5.800;2024-03-22T11:37:22;9.50;99.90
55091;DHT22;40985;53.180;5.800;2024-03-22T11:39:48;9.50;99.90
55091;DHT22;40985;53.180;5.800;2024-03-22T11:42:15;9.50;99.90
55091;DHT22;40985;53.180;5.800;2024-03-22T11:44:42;9.60;99.90
55091;DHT22;40985;53.180;5.800;2024-03-22T11:47:08;9.50;99.90
55091;DHT22;40985;53.180;5.800;2024-03-22T11:49:34;9.50;99.90
55091;DHT22;40985;53.180;5.800;2024-03-22T11:52:00;9.50;99.90
55091;DHT22;40985;53.180;5.800;2024-03-22T11:54:26;9.50;99.90
55091;DHT22;40985;53.180;5.800;2024-03-22T11:56:55;9.50;99.90
55091;DHT22;40985;53.180;5.800;2024-03-22T11:59:22;9.50;99.90
55091;DHT22;40985;53.180;5.800;2024-03-22T12:01:47;9.60;99.90
55091;DHT22;40985;53.180;5.800;2024-03-22T12:04:13;9.60;99.90
55091;DHT22;40985;53.180;5.800;2024-03-22T12:06:43;9.70;99.90
55091;DHT22;40985;53.180;5.800;2024-03-22T12:09:08;9.80;99.90
55091;DHT22;40985;53.180;5.800;2024-03-22T12:11:36;9.80;99.90
55091;DHT22;40985;53.180;5.800;2024-03-22T12:14:02;9.90;99.90
55091;DHT22;40985;53.180;5.800;2024-03-22T12:16:28;9.90;99.90
55091;DHT22;40985;53.180;5.800;2024-03-22T12:18:53;10.00;99.90
55091;DHT22;40985;53.180;5.800;2024-03-22T12:21:19;10.00;99.90
55091;DHT22;40985;53.180;5.800;2024-03-22T12:23:44;10.00;99.90
55091;DHT22;40985;53.180;5.800;2024-03-22T12:26:10;9.90;99.90
55091;DHT22;40985;53.180;5.800;2024-03-22T12:28:36;9.90;99.90
55091;DHT22;40985;53.180;5.800;2024-03-22T12:31:01;9.90;99.90
55091;DHT22;40985;53.180;5.800;2024-03-22T12:33:27;10.00;99.90
55091;DHT22;40985;53.180;5.800;2024-03-22T12:35:53;10.00;99.90
55091;DHT22;40985;53.180;5.800;2024-03-22T12:38:18;10.10;99.90
55091;DHT22;40985;53.180;5.800;2024-03-22T12:40:44;10.10;99.90
55091;DHT22;40985;53.180;5.800;2024-03-22T12:43:10;10.00;99.90
55091;DHT22;40985;53.180;5.800;2024-03-22T12:45:37;10.10;99.90
55091;DHT22;40985;53.180;5.800;2024-03-22T12:48:03;10.10;99.90
55091;DHT22;40985;53.180;5.800;2024-03-22T12:50:29;10.00;99.90
55091;DHT22;40985;53.180;5.800;2024-03-22T12:52:55;10.00;99.90
55091;DHT22;40985;53.180;5.800;2024-03-22T12:55:21;9.90;99.90
55091;DHT22;40985;53.180;5.800;2024-03-22T12:57:47;9.90;99.90
55091;DHT22;40985;53.180;5.800;2024-03-22T13:00:14;9.90;99.90
55091;DHT22;40985;53.180;5.800;2024-03-22T13:02:46;9.90;99.90
55091;DHT22;40985;53.180;5.800;2024-03-22T13:05:12;9.80;99.90
55091;DHT22;40985;53.180;5.800;2024-03-22T13:07:38;9.60;99.90
55091;DHT22;40985;53.180;5.800;2024-03-22T13:10:05;9.50;99.90
55091;DHT22;40985;53.180;5.800;2024-03-22T13:12:31;9.50;99.90
55091;DHT22;40985;53.180;5.800;2024-03-22T13:14:59;9.50;99.90
55091;DHT22;40985;53.180;5.800;2024-03-22T13:17:25;9.30;99.90
55091;DHT22;40985;53.180;5.800;2024-03-22T13:19:51;9.30;99.90
55091;DHT22;40985;53.180;5.800;2024-03-22T13:22:16;9.30;99.90
55091;DHT22;40985;53.180;5.800;2024-03-22T13:24:47;9.30;99.90
55091;DHT22;40985;53.180;5.800;2024-03-22T13:27:14;9.30;99.90
55091;DHT22;40985;53.180;5.800;2024-03-22T13:29:41;9.40;99.90
55091;DHT22;40985;53.180;5.800;2024-03-22T13:32:07;9.40;99.90
55091;DHT22;40985;53.180;5.800;2024-03-22T13:34:39;9.40;99.90
55091;DHT22;40985;53.180;5.800;2024-03-22T13:37:05;9.40;99.90
55091;DHT22;40985;53.180;5.800;2024-03-22T13:39:31;9.40;99.90
55091;DHT22;40985;53.180;5.800;2024-03-22T13:41:57;9.40;99.90
55091;DHT22;40985;53.180;5.800;2024-03-22T13:44:24;9.40;99.90
55091;DHT22;40985;53.180;5.800;2024-03-22T13:46:52;9.40;99.90
55091;DHT22;40985;53.180;5.800;2024-03-22T13:49:20;9.40;99.90
55091;DHT22;40985;53.180;5.800;2024-03-22T13:51:49;9.50;99.90
55091;DHT22;40985;53.180;5.800;2024-03-22T13:54:15;9.50;99.90
55091;DHT22;40985;53.180;5.800;2024-03-22T13:56:41;9.50;99.90
55091;DHT22;40985;53.180;5.800;2024-03-22T13:59:06;9.60;99.90
55091;DHT22;40985;53.180;5.800;2024-03-22T14:01:35;9.50;99.90
55091;DHT22;40985;53.180;5.800;2024-03-22T14:04:00;9.60;99.90
55091;DHT22;40985;53.180;5.800;2024-03-22T14:06:27;9.60;99.90
55091;DHT22;40985;53.180;5.800;2024-03-22T14:08:52;9.70;99.90
55091;DHT22;40985;53.180;5.800;2024-03-22T14:11:21;9.60;99.90
55091;DHT22;40985;53.180;5.800;2024-03-22T14:13:46;9.50;99.90
55091;DHT22;40985;53.180;5.800;2024-03-22T14:16:12;9.60;99.90
55091;DHT22;40985;53.180;5.800;2024-03-22T14:18:37;9.50;99.90
55091;DHT22;40985;53.180;5.800;2024-03-22T14:21:03;9.50;99.90
55091;DHT22;40985;53.180;5.800;2024-03-22T14:23:29;9.40;99.90
55091;DHT22;40985;53.180;5.800;2024-03-22T14:25:55;9.40;99.90
55091;DHT22;40985;53.180;5.800;2024-03-22T14:28:21;9.40;99.90
55091;DHT22;40985;53.180;5.800;2024-03-22T14:30:47;9.30;99.90
55091;DHT22;40985;53.180;5.800;2024-03-22T14:33:13;9.20;99.90
55091;DHT22;40985;53.180;5.800;2024-03-22T14:35:38;9.30;99.90
55091;DHT22;40985;53.180;5.800;2024-03-22T14:38:04;9.30;99.90
55091;DHT22;40985;53.180;5.800;2024-03-22T14:40:30;9.20;99.90
55091;DHT22;40985;53.180;5.800;2024-03-22T14:43:02;9.30;99.90
55091;DHT22;40985;53.180;5.800;2024-03-22T14:45:28;9.20;99.90
55091;DHT22;40985;53.180;5.800;2024-03-22T14:47:54;9.20;99.90
55091;DHT22;40985;53.180;5.800;2024-03-22T14:50:19;9.20;99.90
55091;DHT22;40985;53.180;5.800;2024-03-22T14:52:48;9.20;99.90
55091;DHT22;40985;53.180;5.800;2024-03-22T14:55:14;9.20;99.90
55091;DHT22;40985;53.180;5.800;2024-03-22T14:57:39;9.20;99.90
55091;DHT22;40985;53.180;5.800;2024-03-22T15:00:06;9.20;99.90
55091;DHT22;40985;53.180;5.800;2024-03-22T15:02:36;9.20;99.90
55091;DHT22;40985;53.180;5.800;2024-03-22T15:05:02;9.20;99.90
55091;DHT22;40985;53.180;5.800;2024-03-22T15:07:30;9.20;99.90
55091;DHT22;40985;53.180;5.800;2024-03-22T15:09:56;9.20;99.90
55091;DHT22;40985;53.180;5.800;2024-03-22T15:12:21;9.20;99.90
55091;DHT22;40985;53.180;5.800;2024-03-22T15:14:47;9.20;99.90
55091;DHT22;40985;53.180;5.800;2024-03-22T15:17:13;9.10;99.90
55091;DHT22;40985;53.180;5.800;2024-03-22T15:19:41;9.10;99.90
55091;DHT22;40985;53.180;5.800;2024-03-22T15:22:08;9.20;99.90
55091;DHT22;40985;53.180;5.800;2024-03-22T15:24:34;9.10;99.90
55091;DHT22;40985;53.180;5.800;2024-03-22T15:26:59;9.20;99.90
55091;DHT22;40985;53.180;5.800;2024-03-22T15:29:25;9.10;99.90
55091;DHT22;40985;53.180;5.800;2024-03-22T15:31:51;9.10;99.90
55091;DHT22;40985;53.180;5.800;2024-03-22T15:34:17;9.00;99.90
55091;DHT22;40985;53.180;5.800;2024-03-22T15:36:42;9.00;99.90